createdAt,value
2019-04-22T00:00:08.560Z,50.04
2019-04-22T00:03:10.660Z,50.99
2019-04-22T00:09:30.669Z,51.01
2019-04-22T00:12:37.450Z,50.30
2019-04-22T00:15:28.037Z,49.99
2019-04-22T00:18:50.430Z,48.51
2019-04-22T00:21:32.301Z,47.67
2019-04-22T00:26:16.450Z,45.72
2019-04-22T00:29:37.335Z,44.67
2019-04-22T00:32:19.401Z,42.61
2019-04-22T00:35:12.761Z,42.82
2019-04-22T00:41:23.471Z,43.30
2019-04-22T00:44:23.703Z,42.08
2019-04-22T00:47:23.271Z,41.88
2019-04-22T00:50:18.875Z,42.18
2019-04-22T00:56:17.320Z,41.89
2019-04-22T00:59:21.987Z,41.47
2019-04-22T01:02:23.011Z,40.96
2019-04-22T01:05:21.434Z,42.71
2019-04-22T01:08:25.073Z,42.92
2019-04-22T01:11:22.772Z,42.22
2019-04-22T01:14:17.233Z,43.14
2019-04-22T01:17:11.732Z,42.43
2019-04-22T01:20:29.448Z,42.83
2019-04-22T01:23:13.779Z,42.33
2019-04-22T01:26:09.547Z,41.37
2019-04-22T01:29:05.308Z,42.21
2019-04-22T01:31:53.093Z,41.89
2019-04-22T01:35:05.960Z,41.89
2019-04-22T01:38:11.989Z,42.61
2019-04-22T01:41:23.572Z,42.43
2019-04-22T01:44:22.886Z,41.92
2019-04-22T01:47:18.317Z,42.73
2019-04-22T01:50:11.903Z,42.85
2019-04-22T01:53:24.777Z,44.08
2019-04-22T01:56:20.580Z,42.67
2019-04-22T01:59:13.983Z,44.51
2019-04-22T02:02:19.827Z,44.20
2019-04-22T02:05:18.745Z,43.49
2019-04-22T02:08:25.220Z,43.18
2019-04-22T02:11:32.108Z,43.16
2019-04-22T02:14:20.136Z,42.63
2019-04-22T02:17:17.637Z,43.26
2019-04-22T02:20:18.420Z,43.38
2019-04-22T02:23:39.893Z,43.90
2019-04-22T02:26:22.931Z,44.51
2019-04-22T02:29:22.776Z,42.96
2019-04-22T02:35:45.946Z,43.35
2019-04-22T02:38:35.014Z,43.37
2019-04-22T02:44:16.921Z,43.57
2019-04-22T02:47:20.797Z,43.57
2019-04-22T02:50:19.215Z,44.51
2019-04-22T02:53:45.057Z,44.10
2019-04-22T03:02:28.459Z,44.61
2019-04-22T03:05:27.822Z,44.61
2019-04-22T03:08:25.591Z,45.32
2019-04-22T03:14:38.234Z,44.81
2019-04-22T03:17:24.622Z,45.12
2019-04-22T03:20:17.150Z,45.04
2019-04-22T03:23:47.213Z,45.14
2019-04-22T03:29:18.180Z,44.84
2019-04-22T03:38:18.130Z,47.23
2019-04-22T03:41:43.469Z,47.45
2019-04-22T03:47:31.473Z,47.11
2019-04-22T03:53:20.994Z,47.52
2019-04-22T03:56:57.248Z,46.80
2019-04-22T03:59:33.783Z,46.29
2019-04-22T04:02:31.725Z,46.29
2019-04-22T04:05:33.862Z,47.31
2019-04-22T04:08:26.887Z,48.05
2019-04-22T04:11:26.270Z,48.79
2019-04-22T04:14:30.223Z,50.32
2019-04-22T04:17:29.270Z,48.38
2019-04-22T04:20:34.791Z,47.56
2019-04-22T04:23:30.923Z,49.27
2019-04-22T04:26:42.700Z,48.97
2019-04-22T04:29:36.217Z,47.72
2019-04-22T04:38:20.808Z,46.98
2019-04-22T04:41:30.839Z,46.67
2019-04-22T04:44:39.384Z,46.66
2019-04-22T04:47:35.633Z,47.29
2019-04-22T04:50:18.471Z,47.57
2019-04-22T04:53:20.917Z,46.86
2019-04-22T04:56:29.673Z,46.14
2019-04-22T04:59:39.303Z,46.33
2019-04-22T05:02:35.176Z,45.79
2019-04-22T05:05:27.098Z,44.85
2019-04-22T05:08:29.605Z,44.85
2019-04-22T05:11:29.271Z,44.45
2019-04-22T05:14:17.186Z,44.73
2019-04-22T05:17:37.456Z,44.22
2019-04-22T05:23:28.904Z,44.20
2019-04-22T05:26:26.066Z,44.81
2019-04-22T05:29:17.027Z,44.38
2019-04-22T05:32:22.739Z,42.74
2019-04-22T05:35:14.497Z,44.24
2019-04-22T05:38:22.156Z,43.75
2019-04-22T05:41:17.790Z,43.30
2019-04-22T05:44:14.446Z,42.69
2019-04-22T05:47:15.216Z,42.27
2019-04-22T05:50:13.209Z,42.55
2019-04-22T05:53:07.118Z,42.35
2019-04-22T05:56:23.877Z,42.43
2019-04-22T05:59:17.741Z,42.23
2019-04-22T06:02:25.316Z,40.69
2019-04-22T06:05:33.140Z,41.60
2019-04-22T06:08:17.118Z,41.56
2019-04-22T06:14:09.102Z,41.22
2019-04-22T06:17:20.265Z,34.38
2019-04-22T06:23:18.684Z,28.37
2019-04-22T06:28:05.244Z,25.71
2019-04-22T06:31:02.548Z,26.52
2019-04-22T06:34:02.305Z,27.62
2019-04-22T06:39:58.844Z,22.82
2019-04-22T06:43:05.627Z,23.94
2019-04-22T06:46:02.716Z,24.96
2019-04-22T06:49:03.674Z,23.01
2019-04-22T06:52:01.130Z,23.34
2019-04-22T06:55:03.946Z,22.30
2019-04-22T06:58:00.369Z,22.22
2019-04-22T07:01:19.329Z,21.61
2019-04-22T07:03:58.558Z,20.70
2019-04-22T07:07:02.236Z,22.62
2019-04-22T07:10:11.576Z,22.00
2019-04-22T07:12:54.048Z,20.65
2019-04-22T07:15:59.595Z,21.29
2019-04-22T07:18:56.769Z,20.07
2019-04-22T07:21:58.574Z,21.09
2019-04-22T07:24:59.238Z,21.71
2019-04-22T07:28:01.725Z,20.70
2019-04-22T07:31:02.404Z,20.24
2019-04-22T07:33:58.296Z,20.89
2019-04-22T07:37:10.988Z,21.30
2019-04-22T07:39:56.548Z,20.76
2019-04-22T07:42:57.093Z,19.85
2019-04-22T07:45:58.845Z,18.79
2019-04-22T07:48:57.946Z,18.18
2019-04-22T07:51:55.822Z,18.50
2019-04-22T07:54:56.985Z,20.42
2019-04-22T07:58:00.768Z,20.09
2019-04-22T08:01:03.565Z,19.47
2019-04-22T08:06:57.547Z,18.81
2019-04-22T08:12:58.087Z,20.03
2019-04-22T08:15:58.225Z,19.02
2019-04-22T08:19:04.246Z,18.70
2019-04-22T08:22:00.024Z,17.79
2019-04-22T08:25:09.895Z,17.69
2019-04-22T08:27:57.282Z,17.82
2019-04-22T08:31:05.139Z,18.04
2019-04-22T08:34:01.625Z,17.50
2019-04-22T08:37:25.698Z,17.17
2019-04-22T08:40:03.561Z,17.71
2019-04-22T08:43:09.091Z,17.39
2019-04-22T08:46:01.664Z,17.13
2019-04-22T08:51:56.296Z,17.82
2019-04-22T08:54:57.053Z,17.60
2019-04-22T08:58:18.519Z,19.13
2019-04-22T09:01:04.594Z,19.48
2019-04-22T09:03:58.446Z,19.47
2019-04-22T09:07:12.941Z,17.11
2019-04-22T09:09:55.369Z,18.02
2019-04-22T09:13:00.653Z,17.21
2019-04-22T09:15:55.598Z,19.43
2019-04-22T09:19:02.713Z,18.71
2019-04-22T09:21:54.444Z,17.38
2019-04-22T09:24:54.076Z,17.72
2019-04-22T09:27:55.618Z,17.98
2019-04-22T09:31:02.091Z,17.19
2019-04-22T09:33:53.172Z,15.41
2019-04-22T09:37:07.928Z,19.77
2019-04-22T09:40:04.634Z,18.85
2019-04-22T09:42:56.046Z,18.46
2019-04-22T09:45:53.157Z,17.82
2019-04-22T09:49:05.008Z,17.50
2019-04-22T09:51:58.641Z,18.71
2019-04-22T09:54:59.879Z,17.72
2019-04-22T09:57:57.985Z,17.21
2019-04-22T10:01:09.008Z,16.41
2019-04-22T10:06:54.683Z,17.00
2019-04-22T10:10:03.334Z,18.23
2019-04-22T10:12:54.252Z,17.83
2019-04-22T10:16:08.968Z,17.32
2019-04-22T10:18:59.115Z,16.51
2019-04-22T10:24:56.931Z,15.67
2019-04-22T10:28:01.282Z,17.90
2019-04-22T10:30:53.475Z,15.19
2019-04-22T10:33:50.014Z,16.39
2019-04-22T10:36:31.082Z,16.47
2019-04-22T10:39:39.895Z,17.05
2019-04-22T10:42:31.295Z,17.09
2019-04-22T10:45:30.324Z,17.35
2019-04-22T10:48:30.278Z,16.73
2019-04-22T10:51:30.738Z,15.82
2019-04-22T10:54:29.682Z,16.54
2019-04-22T10:57:29.815Z,14.79
2019-04-22T11:00:29.725Z,14.53
2019-04-22T11:03:30.950Z,17.42
2019-04-22T11:06:29.618Z,17.13
2019-04-22T11:09:30.896Z,15.85
2019-04-22T11:12:32.263Z,15.33
2019-04-22T11:15:30.754Z,16.36
2019-04-22T11:18:29.628Z,15.31
2019-04-22T11:21:29.605Z,16.33
2019-04-22T11:24:30.636Z,15.81
2019-04-22T11:27:30.809Z,15.09
2019-04-22T11:30:30.272Z,15.86
2019-04-22T11:33:30.426Z,17.22
2019-04-22T11:36:30.793Z,15.51
2019-04-22T11:39:31.194Z,15.70
2019-04-22T11:42:30.222Z,14.81
2019-04-22T11:45:29.264Z,14.39
2019-04-22T11:48:29.375Z,15.70
2019-04-22T11:51:29.770Z,16.11
2019-04-22T11:54:30.472Z,15.69
2019-04-22T11:57:29.086Z,15.51
2019-04-22T12:00:30.553Z,15.97
2019-04-22T12:03:29.012Z,14.98
2019-04-22T12:06:28.998Z,14.82
2019-04-22T12:09:29.924Z,13.45
2019-04-22T12:12:29.952Z,14.74
2019-04-22T12:15:29.050Z,13.10
2019-04-22T12:18:29.157Z,12.87
2019-04-22T12:21:29.042Z,13.06
2019-04-22T12:24:30.254Z,14.37
2019-04-22T12:27:36.913Z,15.25
2019-04-22T12:30:29.781Z,12.45
2019-04-22T12:33:29.522Z,12.66
2019-04-22T12:36:28.831Z,14.37
2019-04-22T12:39:29.587Z,14.33
2019-04-22T12:42:29.298Z,14.15
2019-04-22T12:45:30.013Z,13.06
2019-04-22T12:48:28.603Z,10.79
2019-04-22T12:51:29.252Z,10.57
2019-04-22T12:54:29.032Z,11.08
2019-04-22T12:57:28.518Z,11.89
2019-04-22T13:00:30.041Z,12.38
2019-04-22T13:03:28.601Z,11.60
2019-04-22T13:06:30.023Z,11.72
2019-04-22T13:09:29.428Z,12.39
2019-04-22T13:12:29.042Z,12.40
2019-04-22T13:15:28.841Z,13.36
2019-04-22T13:18:37.393Z,10.71
2019-04-22T13:21:29.299Z,13.60
2019-04-22T13:24:28.250Z,13.07
2019-04-22T13:27:29.034Z,12.49
2019-04-22T13:30:28.490Z,11.54
2019-04-22T13:33:28.675Z,10.85
2019-04-22T13:36:29.787Z,12.13
2019-04-22T13:39:29.331Z,10.62
2019-04-22T13:42:29.817Z,10.00
2019-04-22T13:45:28.046Z,10.61
2019-04-22T13:54:00.252Z,8.74
2019-04-22T13:54:53.252Z,9.51
2019-04-22T13:57:45.389Z,9.63
2019-04-22T14:00:28.899Z,10.91
2019-04-22T14:03:29.030Z,11.81
2019-04-22T14:06:29.133Z,11.00
2019-04-22T14:09:28.339Z,11.40
2019-04-22T14:12:28.780Z,11.59
2019-04-22T14:15:27.918Z,11.28
2019-04-22T14:18:28.750Z,11.98
2019-04-22T14:21:27.813Z,13.37
2019-04-22T14:24:27.966Z,13.89
2019-04-22T14:27:38.222Z,14.44
2019-04-22T14:30:28.685Z,14.56
2019-04-22T14:33:27.902Z,17.47
2019-04-22T14:36:27.668Z,17.06
2019-04-22T14:39:28.083Z,16.74
2019-04-22T14:42:49.778Z,16.51
2019-04-22T14:46:03.940Z,16.30
2019-04-22T14:48:49.659Z,18.46
2019-04-22T14:51:49.858Z,17.62
2019-04-22T14:54:37.619Z,15.83
2019-04-22T14:57:29.822Z,15.34
2019-04-22T15:00:27.302Z,15.06
2019-04-22T15:03:27.852Z,17.57
2019-04-22T15:06:28.484Z,17.43
2019-04-22T15:09:28.085Z,17.14
2019-04-22T15:12:34.468Z,16.47
2019-04-22T15:15:29.247Z,17.19
2019-04-22T15:18:28.328Z,17.60
2019-04-22T15:21:27.248Z,16.16
2019-04-22T15:24:27.669Z,18.06
2019-04-22T15:27:29.623Z,19.13
2019-04-22T15:30:27.782Z,17.39
2019-04-22T15:33:27.719Z,17.30
2019-04-22T15:36:27.979Z,15.78
2019-04-22T15:39:27.344Z,15.95
2019-04-22T15:42:30.765Z,17.55
2019-04-22T15:45:28.713Z,15.34
2019-04-22T15:48:27.288Z,17.28
2019-04-22T15:51:26.895Z,19.56
2019-04-22T15:54:27.787Z,21.28
2019-04-22T15:57:26.762Z,24.42
2019-04-22T16:00:38.317Z,24.17
2019-04-22T16:03:28.951Z,22.73
2019-04-22T16:06:27.813Z,23.33
2019-04-22T16:09:26.953Z,23.77
2019-04-22T16:12:34.508Z,24.35
2019-04-22T16:15:28.785Z,23.86
2019-04-22T16:18:26.584Z,23.78
2019-04-22T16:21:34.058Z,24.41
2019-04-22T16:24:27.908Z,25.92
2019-04-22T16:27:26.642Z,25.57
2019-04-22T16:30:27.778Z,26.35
2019-04-22T16:33:27.620Z,26.18
2019-04-22T16:36:26.955Z,26.08
2019-04-22T16:39:26.930Z,26.09
2019-04-22T16:42:35.925Z,25.98
2019-04-22T16:45:27.409Z,25.89
2019-04-22T16:48:27.456Z,25.98
2019-04-22T16:51:27.578Z,27.00
2019-04-22T16:54:27.802Z,26.21
2019-04-22T16:57:26.219Z,25.81
2019-04-22T17:00:26.944Z,25.72
2019-04-22T17:03:26.810Z,26.12
2019-04-22T17:06:25.969Z,26.72
2019-04-22T17:09:25.955Z,26.02
2019-04-22T17:12:38.446Z,26.53
2019-04-22T17:15:27.133Z,25.95
2019-04-22T17:18:25.851Z,26.25
2019-04-22T17:21:25.964Z,26.75
2019-04-22T17:24:25.815Z,28.46
2019-04-22T17:27:26.604Z,27.58
2019-04-22T17:30:26.411Z,26.77
2019-04-22T17:33:26.457Z,27.08
2019-04-22T17:36:26.524Z,27.79
2019-04-22T17:39:40.165Z,27.60
2019-04-22T17:42:46.473Z,28.42
2019-04-22T17:45:53.957Z,27.62
2019-04-22T17:48:47.436Z,28.63
2019-04-22T17:51:55.092Z,28.23
2019-04-22T17:54:47.823Z,27.84
2019-04-22T17:57:46.324Z,29.05
2019-04-22T18:00:46.937Z,29.06
2019-04-22T18:03:33.797Z,28.56
2019-04-22T18:06:55.006Z,30.08
2019-04-22T18:10:16.184Z,29.78
2019-04-22T18:12:50.155Z,29.59
2019-04-22T18:15:48.695Z,30.50
2019-04-22T18:18:49.597Z,30.50
2019-04-22T18:21:40.656Z,30.82
2019-04-22T18:24:36.502Z,31.63
2019-04-22T18:30:48.530Z,31.63
2019-04-22T18:33:46.397Z,31.45
2019-04-22T18:36:40.426Z,31.45
2019-04-22T18:39:50.858Z,31.96
2019-04-22T18:42:55.308Z,31.67
2019-04-22T18:46:05.356Z,31.98
2019-04-22T18:48:45.648Z,32.39
2019-04-22T18:51:46.304Z,32.10
2019-04-22T18:54:48.485Z,33.01
2019-04-22T18:57:40.165Z,33.43
2019-04-22T19:00:27.323Z,33.53
2019-04-22T19:03:29.639Z,32.42
2019-04-22T19:09:56.266Z,33.34
2019-04-22T19:13:04.083Z,34.25
2019-04-22T19:15:54.089Z,33.64
2019-04-22T19:18:46.047Z,34.47
2019-04-22T19:21:49.469Z,34.27
2019-04-22T19:24:45.881Z,35.30
2019-04-22T19:27:46.741Z,35.39
2019-04-22T19:30:50.792Z,36.21
2019-04-22T19:33:46.492Z,36.81
2019-04-22T19:36:46.302Z,37.94
2019-04-22T19:39:52.601Z,36.93
2019-04-22T19:42:51.773Z,36.93
2019-04-22T19:45:39.875Z,36.72
2019-04-22T19:48:51.900Z,38.65
2019-04-22T19:51:55.891Z,37.67
2019-04-22T19:54:52.069Z,37.88
2019-04-22T19:57:44.693Z,38.08
2019-04-22T20:00:38.890Z,38.08
2019-04-22T20:03:52.708Z,38.48
2019-04-22T20:06:41.402Z,38.79
2019-04-22T20:09:47.924Z,39.72
2019-04-22T20:15:37.157Z,40.04
2019-04-22T20:18:48.093Z,39.92
2019-04-22T20:21:50.150Z,39.64
2019-04-22T20:24:29.248Z,39.62
2019-04-22T20:27:47.412Z,40.04
2019-04-22T20:30:46.811Z,40.34
2019-04-22T20:33:54.534Z,39.86
2019-04-22T20:37:01.480Z,40.77
2019-04-22T20:40:00.733Z,40.87
2019-04-22T20:45:46.194Z,40.28
2019-04-22T20:48:48.281Z,39.26
2019-04-22T20:51:53.108Z,38.86
2019-04-22T20:54:43.537Z,37.73
2019-04-22T20:57:48.417Z,38.34
2019-04-22T21:00:39.099Z,38.15
2019-04-22T21:03:33.782Z,37.96
2019-04-22T21:06:42.913Z,38.47
2019-04-22T21:09:43.150Z,38.76
2019-04-22T21:12:36.428Z,38.68
2019-04-22T21:15:49.346Z,39.10
2019-04-22T21:18:36.157Z,39.91
2019-04-22T21:21:46.924Z,39.40
2019-04-22T21:24:44.335Z,40.34
2019-04-22T21:27:51.080Z,40.54
2019-04-22T21:30:46.841Z,41.15
2019-04-22T21:33:48.965Z,39.75
2019-04-22T21:36:54.819Z,39.64
2019-04-22T21:39:40.815Z,38.73
2019-04-22T21:42:47.291Z,39.24
2019-04-22T21:45:45.395Z,38.22
2019-04-22T21:48:48.141Z,39.54
2019-04-22T21:51:52.230Z,39.66
2019-04-22T21:54:47.139Z,39.56
2019-04-22T21:57:51.010Z,39.26
2019-04-22T22:00:54.167Z,40.17
2019-04-22T22:03:50.654Z,39.89
2019-04-22T22:06:39.676Z,39.80
2019-04-22T22:09:45.942Z,39.70
2019-04-22T22:12:48.740Z,39.80
2019-04-22T22:15:46.573Z,40.52
2019-04-22T22:18:35.285Z,40.03
2019-04-22T22:21:51.135Z,41.14
2019-04-22T22:24:45.195Z,40.64
2019-04-22T22:27:40.555Z,40.43
2019-04-22T22:33:43.396Z,40.86
2019-04-22T22:36:36.349Z,40.74
2019-04-22T22:39:34.025Z,40.45
2019-04-22T22:42:31.279Z,41.57
2019-04-22T22:45:36.107Z,41.27
2019-04-22T22:48:44.697Z,40.86
2019-04-22T22:52:00.090Z,42.10
2019-04-22T22:54:46.263Z,42.21
2019-04-22T22:57:44.428Z,42.00
2019-04-22T23:00:39.361Z,41.80
2019-04-22T23:03:52.907Z,41.89
2019-04-22T23:06:46.840Z,42.94
2019-04-22T23:09:47.143Z,43.14
2019-04-22T23:12:48.495Z,42.73
2019-04-22T23:15:39.284Z,41.69
2019-04-22T23:18:23.775Z,41.27
2019-04-22T23:21:29.092Z,41.80
2019-04-22T23:24:41.162Z,41.49
2019-04-22T23:27:40.395Z,42.30
2019-04-22T23:30:30.048Z,42.51
2019-04-22T23:33:39.227Z,42.53
2019-04-22T23:36:30.523Z,42.83
2019-04-22T23:42:41.060Z,43.35
2019-04-22T23:45:40.455Z,44.28
2019-04-22T23:48:30.210Z,42.94
2019-04-22T23:51:41.894Z,42.83
2019-04-22T23:54:49.662Z,42.83
2019-04-22T23:57:43.798Z,44.59
